createdAt,value
2023-12-14T00:00:54.174Z,18.83
2023-12-14T00:03:21.102Z,16.50
2023-12-14T00:05:48.061Z,16.48
2023-12-14T00:08:15.009Z,22.10
2023-12-14T00:10:41.984Z,16.40
2023-12-14T00:13:09.001Z,18.33
2023-12-14T00:15:36.179Z,15.48
2023-12-14T00:18:03.338Z,19.08
2023-12-14T00:20:30.300Z,19.20
2023-12-14T00:22:57.329Z,19.88
2023-12-14T00:25:24.240Z,16.38
2023-12-14T00:27:51.195Z,20.95
2023-12-14T00:30:18.253Z,19.38
2023-12-14T00:32:45.207Z,20.35
2023-12-14T00:35:12.232Z,18.05
2023-12-14T00:37:39.334Z,16.17
2023-12-14T00:40:06.878Z,18.02
2023-12-14T00:42:34.160Z,17.75
2023-12-14T00:45:01.191Z,14.77
2023-12-14T00:47:28.134Z,16.13
2023-12-14T00:49:55.041Z,15.05
2023-12-14T00:52:22.269Z,14.52
2023-12-14T00:54:49.236Z,15.90
2023-12-14T00:57:16.191Z,15.45
2023-12-14T00:59:43.233Z,16.77
2023-12-14T01:02:10.203Z,14.38
2023-12-14T01:04:37.117Z,14.93
2023-12-14T01:07:05.285Z,13.25
2023-12-14T01:09:32.281Z,14.80
2023-12-14T01:11:59.134Z,14.52
2023-12-14T01:14:26.132Z,13.32
2023-12-14T01:16:53.339Z,16.80
2023-12-14T01:19:20.329Z,15.68
2023-12-14T01:21:47.252Z,13.57
2023-12-14T01:24:14.242Z,15.18
2023-12-14T01:26:41.385Z,14.45
2023-12-14T01:29:08.882Z,13.30
2023-12-14T01:31:35.929Z,12.57
2023-12-14T01:34:02.839Z,16.52
2023-12-14T01:36:29.890Z,15.02
2023-12-14T01:38:56.774Z,15.73
2023-12-14T01:41:23.775Z,14.65
2023-12-14T01:43:50.752Z,16.17
2023-12-14T01:46:17.847Z,15.43
2023-12-14T01:48:45.223Z,13.82
2023-12-14T01:51:12.146Z,15.95
2023-12-14T01:53:39.242Z,13.85
2023-12-14T01:56:06.532Z,12.75
2023-12-14T01:58:33.458Z,13.80
2023-12-14T02:01:13.919Z,14.20
2023-12-14T02:03:53.873Z,14.55
2023-12-14T02:06:21.155Z,13.27
2023-12-14T02:08:48.037Z,14.23
2023-12-14T02:11:15.379Z,14.50
2023-12-14T02:13:42.467Z,14.77
2023-12-14T02:16:10.864Z,12.05
2023-12-14T02:18:38.897Z,18.35
2023-12-14T02:21:05.934Z,14.68
2023-12-14T02:23:32.806Z,14.20
2023-12-14T02:25:59.779Z,15.30
2023-12-14T02:28:26.800Z,12.38
2023-12-14T02:30:53.805Z,13.73
2023-12-14T02:33:20.617Z,14.25
2023-12-14T02:35:47.462Z,12.35
2023-12-14T02:38:14.463Z,11.75
2023-12-14T02:40:41.483Z,12.30
2023-12-14T02:43:08.330Z,13.55
2023-12-14T02:45:37.981Z,15.00
2023-12-14T02:48:11.187Z,14.70
2023-12-14T02:50:38.074Z,12.07
2023-12-14T02:53:05.126Z,13.05
2023-12-14T02:55:32.222Z,13.00
2023-12-14T02:57:59.217Z,12.80
2023-12-14T03:00:26.474Z,12.15
2023-12-14T03:02:54.114Z,14.63
2023-12-14T03:05:21.243Z,12.63
2023-12-14T03:07:48.107Z,14.55
2023-12-14T03:10:15.329Z,12.45
2023-12-14T03:12:42.204Z,12.48
2023-12-14T03:15:09.410Z,12.48
2023-12-14T03:17:36.328Z,13.30
2023-12-14T03:20:04.837Z,12.98
2023-12-14T03:22:31.984Z,13.02
2023-12-14T03:24:58.924Z,12.60
2023-12-14T03:27:25.874Z,13.48
2023-12-14T03:29:54.207Z,13.57
2023-12-14T03:32:21.196Z,13.02
2023-12-14T03:34:48.134Z,12.48
2023-12-14T03:37:15.093Z,12.57
2023-12-14T03:39:41.926Z,13.55
2023-12-14T03:42:08.800Z,12.82
2023-12-14T03:44:35.671Z,13.85
2023-12-14T03:47:02.667Z,16.02
2023-12-14T03:49:29.667Z,13.82
2023-12-14T03:51:56.758Z,14.90
2023-12-14T03:54:23.705Z,15.75
2023-12-14T03:56:50.513Z,16.15
2023-12-14T03:59:17.513Z,16.02
2023-12-14T04:01:44.413Z,13.32
2023-12-14T04:04:11.325Z,19.40
2023-12-14T04:06:38.166Z,16.13
2023-12-14T04:09:05.077Z,19.50
2023-12-14T04:11:32.003Z,15.07
2023-12-14T04:13:59.782Z,17.95
2023-12-14T04:16:26.778Z,19.00
2023-12-14T04:18:57.470Z,16.60
2023-12-14T04:21:24.427Z,18.65
2023-12-14T04:23:51.223Z,15.75
2023-12-14T04:26:18.221Z,16.80
2023-12-14T04:28:47.349Z,17.15
2023-12-14T04:31:14.432Z,13.65
2023-12-14T04:33:41.557Z,17.60
2023-12-14T04:36:08.801Z,14.48
2023-12-14T04:38:35.729Z,14.50
2023-12-14T04:41:02.775Z,17.92
2023-12-14T04:43:33.571Z,17.50
2023-12-14T04:46:00.644Z,13.93
2023-12-14T04:48:27.604Z,16.15
2023-12-14T04:50:54.487Z,14.68
2023-12-14T04:53:21.461Z,15.70
2023-12-14T04:55:48.575Z,13.43
2023-12-14T04:58:15.440Z,15.27
2023-12-14T05:00:42.445Z,16.42
2023-12-14T05:03:09.881Z,13.38
2023-12-14T05:05:36.858Z,13.93
2023-12-14T05:08:03.836Z,13.75
2023-12-14T05:10:31.523Z,12.32
2023-12-14T05:12:59.294Z,13.45
2023-12-14T05:15:26.412Z,11.73
2023-12-14T05:17:53.412Z,13.68
2023-12-14T05:20:21.835Z,16.88
2023-12-14T05:22:48.884Z,11.88
2023-12-14T05:25:15.982Z,10.77
2023-12-14T05:27:43.205Z,13.57
2023-12-14T05:30:10.498Z,13.32
2023-12-14T05:32:37.631Z,12.68
2023-12-14T05:35:05.233Z,14.45
2023-12-14T05:37:32.325Z,12.05
2023-12-14T05:39:59.610Z,14.32
2023-12-14T05:42:26.489Z,12.40
2023-12-14T05:44:53.415Z,12.73
2023-12-14T05:47:20.440Z,11.65
2023-12-14T05:49:47.488Z,13.05
2023-12-14T05:52:14.496Z,12.40
2023-12-14T05:54:41.467Z,12.85
2023-12-14T05:57:08.342Z,12.15
2023-12-14T05:59:36.249Z,14.77
2023-12-14T06:02:03.513Z,12.02
2023-12-14T06:04:31.072Z,12.77
2023-12-14T06:06:57.975Z,13.80
2023-12-14T06:09:30.651Z,14.07
2023-12-14T06:14:26.745Z,14.75
2023-12-14T06:16:53.888Z,11.48
2023-12-14T06:19:21.519Z,13.25
2023-12-14T06:21:51.493Z,9.50
2023-12-14T06:24:18.502Z,11.68
2023-12-14T06:26:46.863Z,10.45
2023-12-14T06:29:13.923Z,10.05
2023-12-14T06:31:42.379Z,9.10
2023-12-14T06:34:11.900Z,8.57
2023-12-14T06:36:43.683Z,11.68
2023-12-14T06:39:11.642Z,9.88
2023-12-14T06:41:39.022Z,9.93
2023-12-14T06:44:06.303Z,8.45
2023-12-14T06:46:33.358Z,9.25
2023-12-14T06:49:00.443Z,8.27
2023-12-14T06:51:27.401Z,10.20
2023-12-14T06:53:54.255Z,9.70
2023-12-14T06:56:21.379Z,8.63
2023-12-14T06:58:50.518Z,8.48
2023-12-14T07:01:20.769Z,9.32
2023-12-14T07:03:49.767Z,9.88
2023-12-14T07:06:18.615Z,7.90
2023-12-14T07:08:46.021Z,10.52
2023-12-14T07:11:13.998Z,10.90
2023-12-14T07:13:41.279Z,8.30
2023-12-14T07:16:10.415Z,10.48
2023-12-14T07:18:38.790Z,10.27
2023-12-14T07:21:06.857Z,11.05
2023-12-14T07:23:34.704Z,8.05
2023-12-14T07:26:03.109Z,9.25
2023-12-14T07:28:31.349Z,11.35
2023-12-14T07:30:58.399Z,9.35
2023-12-14T07:33:25.804Z,9.27
2023-12-14T07:35:52.769Z,8.75
2023-12-14T07:38:19.677Z,9.00
2023-12-14T07:40:47.962Z,10.80
2023-12-14T07:43:15.033Z,10.57
2023-12-14T07:45:42.082Z,8.50
2023-12-14T07:48:10.756Z,10.05
2023-12-14T07:50:37.668Z,7.63
2023-12-14T07:53:05.370Z,8.85
2023-12-14T07:55:32.727Z,7.90
2023-12-14T07:57:59.686Z,10.68
2023-12-14T08:00:26.668Z,9.43
2023-12-14T08:02:53.625Z,9.00
2023-12-14T08:05:20.787Z,8.57
2023-12-14T08:07:49.235Z,8.05
2023-12-14T08:10:16.191Z,7.63
2023-12-14T08:12:43.387Z,13.88
2023-12-14T08:15:10.672Z,8.70
2023-12-14T08:17:37.919Z,7.68
2023-12-14T08:20:10.468Z,9.20
2023-12-14T08:22:37.612Z,9.35
2023-12-14T08:25:04.988Z,10.15
2023-12-14T08:27:31.814Z,8.60
2023-12-14T08:29:58.608Z,9.30
2023-12-14T08:32:25.613Z,8.18
2023-12-14T08:34:54.199Z,8.23
2023-12-14T08:37:21.455Z,8.60
2023-12-14T08:39:48.465Z,12.93
2023-12-14T08:42:15.376Z,9.60
2023-12-14T08:44:42.312Z,9.00
2023-12-14T08:47:10.397Z,9.43
2023-12-14T08:49:37.469Z,9.60
2023-12-14T08:52:05.466Z,10.65
2023-12-14T08:54:32.478Z,9.55
2023-12-14T08:56:59.766Z,9.52
2023-12-14T08:59:26.722Z,9.30
2023-12-14T09:01:54.143Z,9.93
2023-12-14T09:04:22.137Z,9.52
2023-12-14T09:06:49.302Z,11.73
2023-12-14T09:09:16.332Z,10.40
2023-12-14T09:11:43.161Z,12.32
2023-12-14T09:14:10.059Z,9.40
2023-12-14T09:16:38.021Z,8.55
2023-12-14T09:19:05.394Z,9.60
2023-12-14T09:21:40.561Z,11.27
2023-12-14T09:24:13.662Z,10.85
2023-12-14T09:26:41.339Z,11.30
2023-12-14T09:29:08.618Z,10.75
2023-12-14T09:31:36.678Z,11.43
2023-12-14T09:34:04.446Z,9.55
2023-12-14T09:36:31.413Z,11.27
2023-12-14T09:38:58.219Z,11.05
2023-12-14T09:41:25.080Z,10.73
2023-12-14T09:43:53.620Z,10.73
2023-12-14T09:46:23.122Z,12.75
2023-12-14T09:48:51.987Z,9.65
2023-12-14T09:51:19.188Z,11.15
2023-12-14T09:53:46.275Z,11.75
2023-12-14T09:56:13.206Z,9.43
2023-12-14T09:58:40.128Z,7.80
2023-12-14T10:01:23.366Z,10.23
2023-12-14T10:03:50.271Z,10.45
2023-12-14T10:06:18.908Z,8.95
2023-12-14T10:08:57.086Z,10.65
2023-12-14T10:11:24.041Z,10.48
2023-12-14T10:13:51.074Z,11.77
2023-12-14T10:16:34.642Z,14.25
2023-12-14T10:19:02.207Z,12.82
2023-12-14T10:21:30.073Z,12.75
2023-12-14T10:23:57.871Z,11.43
2023-12-14T10:26:30.038Z,13.43
2023-12-14T10:28:56.938Z,9.43
2023-12-14T10:31:25.383Z,8.98
2023-12-14T10:33:52.272Z,10.40
2023-12-14T10:36:25.697Z,11.10
2023-12-14T10:38:58.853Z,11.98
2023-12-14T10:41:26.237Z,10.55
2023-12-14T10:44:17.957Z,9.48
2023-12-14T10:46:49.569Z,9.70
2023-12-14T10:49:17.222Z,9.27
2023-12-14T10:51:46.523Z,9.88
2023-12-14T10:54:16.880Z,12.40
2023-12-14T10:56:43.835Z,12.32
2023-12-14T10:59:10.710Z,11.48
2023-12-14T11:01:40.612Z,7.78
2023-12-14T11:04:14.285Z,10.20
2023-12-14T11:06:41.582Z,9.35
2023-12-14T11:09:11.569Z,6.75
2023-12-14T11:11:58.406Z,10.13
2023-12-14T11:14:26.114Z,8.65
2023-12-14T11:17:07.401Z,7.47
2023-12-14T11:19:34.670Z,13.10
2023-12-14T11:22:13.602Z,10.63
2023-12-14T11:24:52.942Z,11.07
2023-12-14T11:27:29.282Z,8.13
2023-12-14T11:29:57.046Z,6.88
2023-12-14T11:32:26.048Z,8.57
2023-12-14T11:34:53.347Z,9.70
2023-12-14T11:37:21.527Z,8.35
2023-12-14T11:39:52.151Z,10.00
2023-12-14T11:42:19.682Z,9.52
2023-12-14T11:44:46.785Z,8.55
2023-12-14T11:47:13.811Z,9.85
2023-12-14T11:49:40.713Z,9.13
2023-12-14T11:52:07.749Z,9.75
2023-12-14T11:54:35.283Z,25.05
2023-12-14T11:57:04.211Z,9.85
2023-12-14T11:59:33.487Z,7.97
2023-12-14T12:02:02.488Z,8.50
2023-12-14T12:04:29.824Z,10.65
2023-12-14T12:07:05.049Z,8.57
2023-12-14T12:09:41.973Z,7.78
2023-12-14T12:12:13.798Z,10.23
2023-12-14T12:14:41.421Z,8.27
2023-12-14T12:17:08.531Z,8.82
2023-12-14T12:19:36.875Z,7.75
2023-12-14T12:22:04.717Z,7.97
2023-12-14T12:24:34.447Z,7.35
2023-12-14T12:27:01.973Z,8.93
2023-12-14T12:29:29.416Z,7.03
2023-12-14T12:31:56.496Z,6.97
2023-12-14T12:34:23.650Z,7.20
2023-12-14T12:36:50.742Z,7.43
2023-12-14T12:39:18.056Z,7.00
2023-12-14T12:41:44.984Z,7.40
2023-12-14T12:44:11.844Z,8.10
2023-12-14T12:46:39.723Z,8.50
2023-12-14T12:49:06.639Z,7.90
2023-12-14T12:51:34.106Z,8.82
2023-12-14T12:54:10.078Z,7.13
2023-12-14T12:56:40.959Z,8.52
2023-12-14T12:59:10.038Z,9.55
2023-12-14T13:01:38.215Z,11.38
2023-12-14T13:04:06.081Z,8.50
2023-12-14T13:06:32.951Z,10.10
2023-12-14T13:08:59.818Z,6.57
2023-12-14T13:11:26.925Z,8.73
2023-12-14T13:13:54.001Z,6.40
2023-12-14T13:16:20.937Z,10.65
2023-12-14T13:18:47.969Z,5.70
2023-12-14T13:21:14.988Z,7.80
2023-12-14T13:23:42.270Z,5.50
2023-12-14T13:26:09.681Z,5.47
2023-12-14T13:28:36.940Z,6.40
2023-12-14T13:31:04.439Z,8.63
2023-12-14T13:33:31.899Z,7.28
2023-12-14T13:35:58.840Z,4.93
2023-12-14T13:38:26.212Z,7.57
2023-12-14T13:40:53.496Z,9.40
2023-12-14T13:43:20.520Z,6.07
2023-12-14T13:45:53.025Z,5.30
2023-12-14T13:48:26.002Z,6.47
2023-12-14T13:50:56.951Z,5.53
2023-12-14T13:53:24.548Z,5.47
2023-12-14T13:55:51.735Z,10.10
2023-12-14T13:58:19.079Z,5.82
2023-12-14T14:00:48.968Z,6.65
2023-12-14T14:03:15.837Z,5.82
2023-12-14T14:05:45.315Z,6.50
2023-12-14T14:08:17.566Z,7.93
2023-12-14T14:10:45.715Z,7.18
2023-12-14T14:13:12.576Z,7.10
2023-12-14T14:15:39.476Z,8.25
2023-12-14T14:18:06.596Z,7.50
2023-12-14T14:20:34.207Z,8.60
2023-12-14T14:23:01.413Z,9.18
2023-12-14T14:25:28.664Z,6.97
2023-12-14T14:27:58.834Z,7.78
2023-12-14T14:30:26.226Z,12.20
2023-12-14T14:32:53.256Z,9.27
2023-12-14T14:35:22.031Z,7.95
2023-12-14T14:37:49.142Z,9.85
2023-12-14T14:40:16.517Z,7.28
2023-12-14T14:42:44.500Z,13.88
2023-12-14T14:45:14.847Z,14.93
2023-12-14T14:47:43.787Z,8.68
2023-12-14T14:50:10.989Z,10.48
2023-12-14T14:52:38.472Z,9.85
2023-12-14T14:55:05.992Z,16.35
2023-12-14T14:57:34.630Z,14.60
2023-12-14T15:00:01.612Z,11.27
2023-12-14T15:02:28.615Z,14.77
2023-12-14T15:04:55.626Z,15.00
2023-12-14T15:07:22.544Z,14.32
2023-12-14T15:09:49.838Z,12.43
2023-12-14T15:12:16.802Z,13.60
2023-12-14T15:14:44.874Z,20.95
2023-12-14T15:17:13.819Z,12.13
2023-12-14T15:19:40.887Z,13.65
2023-12-14T15:22:07.827Z,12.20
2023-12-14T15:24:34.776Z,10.52
2023-12-14T15:27:03.006Z,15.88
2023-12-14T15:29:29.983Z,11.93
2023-12-14T15:31:56.989Z,12.82
2023-12-14T15:34:23.882Z,11.75
2023-12-14T15:36:50.808Z,12.27
2023-12-14T15:39:18.492Z,10.45
2023-12-14T15:41:45.322Z,9.77
2023-12-14T15:44:12.332Z,12.05
2023-12-14T15:46:39.207Z,11.73
2023-12-14T15:49:06.751Z,13.10
2023-12-14T15:51:34.169Z,12.68
2023-12-14T15:54:01.096Z,13.48
2023-12-14T15:58:58.362Z,15.63
2023-12-14T16:01:25.312Z,16.63
2023-12-14T16:03:52.245Z,11.88
2023-12-14T16:06:20.670Z,12.35
2023-12-14T16:08:47.854Z,14.57
2023-12-14T16:11:15.113Z,15.93
2023-12-14T16:13:42.238Z,17.85
2023-12-14T16:16:11.093Z,16.65
2023-12-14T16:18:38.084Z,14.40
2023-12-14T16:21:06.672Z,20.60
2023-12-14T16:23:33.633Z,14.43
2023-12-14T16:26:00.671Z,15.10
2023-12-14T16:28:28.805Z,16.23
2023-12-14T16:30:55.891Z,16.55
2023-12-14T16:33:23.030Z,16.52
2023-12-14T16:35:50.190Z,21.33
2023-12-14T16:38:17.085Z,24.80
2023-12-14T16:40:44.261Z,18.50
2023-12-14T16:43:11.162Z,22.85
2023-12-14T16:45:38.029Z,20.80
2023-12-14T16:48:05.946Z,17.15
2023-12-14T16:50:32.836Z,18.77
2023-12-14T16:52:59.747Z,16.05
2023-12-14T16:55:26.690Z,19.15
2023-12-14T16:57:53.718Z,18.92
2023-12-14T17:00:20.901Z,18.95
2023-12-14T17:02:48.064Z,18.27
2023-12-14T17:05:15.091Z,18.38
2023-12-14T17:07:42.177Z,21.15
2023-12-14T17:10:09.388Z,19.63
2023-12-14T17:12:36.658Z,20.05
2023-12-14T17:15:04.978Z,26.05
2023-12-14T17:17:36.860Z,19.70
2023-12-14T17:20:04.650Z,21.17
2023-12-14T17:22:37.119Z,21.05
2023-12-14T17:27:35.805Z,18.38
2023-12-14T17:30:04.003Z,20.27
2023-12-14T17:32:31.016Z,25.98
2023-12-14T17:34:58.165Z,28.42
2023-12-14T17:37:27.209Z,25.50
2023-12-14T17:39:54.087Z,31.75
2023-12-14T17:42:24.036Z,22.25
2023-12-14T17:44:51.205Z,29.50
2023-12-14T17:47:18.099Z,25.08
2023-12-14T17:49:45.048Z,29.05
2023-12-14T17:52:16.214Z,32.75
2023-12-14T17:54:43.118Z,33.65
2023-12-14T17:57:17.465Z,35.22
2023-12-14T17:59:44.451Z,32.50
2023-12-14T18:02:11.367Z,30.42
2023-12-14T18:04:41.185Z,29.45
2023-12-14T18:07:10.296Z,27.35
2023-12-14T18:09:37.705Z,26.65
2023-12-14T18:12:04.915Z,30.55
2023-12-14T18:14:31.817Z,29.75
2023-12-14T18:16:58.800Z,31.95
2023-12-14T18:19:29.484Z,29.33
2023-12-14T18:21:56.899Z,22.13
2023-12-14T18:24:25.551Z,23.52
2023-12-14T18:26:52.569Z,21.88
2023-12-14T18:29:19.493Z,21.27
2023-12-14T18:31:46.561Z,20.80
2023-12-14T18:34:13.698Z,22.52
2023-12-14T18:36:40.854Z,19.67
2023-12-14T18:39:08.013Z,21.88
2023-12-14T18:41:35.138Z,19.42
2023-12-14T18:44:02.301Z,21.73
2023-12-14T18:46:29.963Z,18.80
2023-12-14T18:48:57.127Z,21.02
2023-12-14T18:51:25.355Z,27.48
2023-12-14T18:53:52.499Z,20.58
2023-12-14T18:56:19.643Z,21.75
2023-12-14T18:58:46.533Z,19.10
2023-12-14T19:01:14.002Z,18.00
2023-12-14T19:03:41.610Z,21.83
2023-12-14T19:06:10.502Z,27.67
2023-12-14T19:08:39.840Z,20.92
2023-12-14T19:11:15.393Z,23.25
2023-12-14T19:13:42.622Z,21.05
2023-12-14T19:16:10.564Z,22.52
2023-12-14T19:18:37.870Z,21.13
2023-12-14T19:21:07.459Z,18.58
2023-12-14T19:23:34.399Z,21.55
2023-12-14T19:26:03.327Z,17.77
2023-12-14T19:28:30.730Z,20.27
2023-12-14T19:30:58.944Z,18.25
2023-12-14T19:33:28.678Z,19.90
2023-12-14T19:35:55.981Z,18.70
2023-12-14T19:38:23.009Z,21.38
2023-12-14T19:40:49.972Z,18.02
2023-12-14T19:43:17.100Z,20.08
2023-12-14T19:45:44.581Z,24.95
2023-12-14T19:48:11.699Z,21.73
2023-12-14T19:50:39.022Z,19.15
2023-12-14T19:53:05.994Z,18.50
2023-12-14T19:55:32.905Z,15.60
2023-12-14T19:58:00.558Z,18.20
2023-12-14T20:00:28.198Z,17.70
2023-12-14T20:02:56.141Z,20.30
2023-12-14T20:05:23.231Z,20.45
2023-12-14T20:07:50.576Z,22.15
2023-12-14T20:10:17.417Z,18.05
2023-12-14T20:12:45.054Z,22.08
2023-12-14T20:15:14.573Z,22.77
2023-12-14T20:17:41.971Z,21.25
2023-12-14T20:20:12.445Z,18.15
2023-12-14T20:22:40.743Z,16.08
2023-12-14T20:25:09.461Z,17.60
2023-12-14T20:27:37.111Z,16.55
2023-12-14T20:30:06.643Z,17.85
2023-12-14T20:32:34.260Z,24.40
2023-12-14T20:35:01.332Z,25.38
2023-12-14T20:37:28.503Z,24.70
2023-12-14T20:39:57.253Z,24.70
2023-12-14T20:42:24.162Z,23.08
2023-12-14T20:44:52.717Z,21.50
2023-12-14T20:47:19.805Z,19.13
2023-12-14T20:49:46.795Z,19.13
2023-12-14T20:52:13.745Z,15.85
2023-12-14T20:54:40.776Z,26.42
2023-12-14T20:57:07.641Z,23.13
2023-12-14T20:59:34.884Z,13.15
2023-12-14T21:02:01.907Z,16.55
2023-12-14T21:04:28.857Z,15.32
2023-12-14T21:06:56.044Z,14.07
2023-12-14T21:09:22.947Z,12.77
2023-12-14T21:11:49.864Z,21.08
2023-12-14T21:14:18.448Z,16.10
2023-12-14T21:16:51.594Z,11.38
2023-12-14T21:19:19.850Z,16.90
2023-12-14T21:21:47.127Z,11.60
2023-12-14T21:24:17.879Z,12.30
2023-12-14T21:27:03.495Z,15.65
2023-12-14T21:29:30.532Z,11.13
2023-12-14T21:31:57.500Z,17.75
2023-12-14T21:34:24.412Z,12.88
2023-12-14T21:36:51.387Z,17.38
2023-12-14T21:39:18.263Z,17.63
2023-12-14T21:41:45.259Z,15.32
2023-12-14T21:44:12.610Z,11.60
2023-12-14T21:46:39.574Z,14.18
2023-12-14T21:49:14.348Z,15.23
2023-12-14T21:51:45.998Z,24.48
2023-12-14T21:54:13.517Z,19.25
2023-12-14T21:56:41.848Z,16.45
2023-12-14T21:59:09.169Z,14.65
2023-12-14T22:01:36.432Z,14.65
2023-12-14T22:04:04.751Z,11.10
2023-12-14T22:06:31.898Z,13.32
2023-12-14T22:08:58.917Z,10.90
2023-12-14T22:11:25.916Z,13.75
2023-12-14T22:13:52.909Z,15.32
2023-12-14T22:16:19.769Z,12.65
2023-12-14T22:18:46.965Z,12.43
2023-12-14T22:21:14.114Z,10.57
2023-12-14T22:23:41.135Z,13.48
2023-12-14T22:26:08.346Z,19.83
2023-12-14T22:28:35.808Z,13.95
2023-12-14T22:31:02.768Z,14.82
2023-12-14T22:33:29.761Z,12.80
2023-12-14T22:35:56.903Z,11.75
2023-12-14T22:38:24.434Z,15.65
2023-12-14T22:40:53.383Z,14.77
2023-12-14T22:43:20.736Z,12.60
2023-12-14T22:45:47.633Z,9.63
2023-12-14T22:48:15.510Z,14.45
2023-12-14T22:50:42.564Z,15.27
2023-12-14T22:53:15.869Z,15.80
2023-12-14T22:55:50.402Z,9.77
2023-12-14T22:58:18.229Z,11.95
2023-12-14T23:00:45.193Z,10.68
2023-12-14T23:03:12.218Z,11.57
2023-12-14T23:05:40.742Z,13.48
2023-12-14T23:08:07.645Z,14.63
2023-12-14T23:10:35.288Z,13.88
2023-12-14T23:13:02.264Z,14.30
2023-12-14T23:15:29.931Z,17.50
2023-12-14T23:17:57.005Z,12.65
2023-12-14T23:20:25.319Z,14.55
2023-12-14T23:22:52.400Z,17.70
2023-12-14T23:25:19.559Z,17.27
2023-12-14T23:27:46.579Z,15.07
2023-12-14T23:30:13.783Z,17.42
2023-12-14T23:32:41.188Z,17.13
2023-12-14T23:35:08.584Z,15.60
2023-12-14T23:37:36.390Z,16.23
2023-12-14T23:40:04.517Z,12.88
2023-12-14T23:42:31.504Z,20.58
2023-12-14T23:44:58.563Z,19.88
2023-12-14T23:47:26.761Z,18.23
2023-12-14T23:49:53.664Z,18.10
2023-12-14T23:52:20.733Z,22.92
2023-12-14T23:54:47.682Z,21.48
2023-12-14T23:57:14.658Z,29.38
2023-12-14T23:59:41.639Z,20.80
